Latest Weather Observations for North West 10 Beacon

IDQ60901

Issued at 7:11 am EST Tuesday 26 October 2021 (issued every 10 minutes, with the page automatically refreshed every 10 minutes)

About weather observations | Map of Brisbane area stations | Latest observations for Brisbane area | Other Formats
Station Details ID: 200896 Name: NORTH WEST 10 BEACON Lat: -27.00 Lon: 153.24 Height: 7.0 m
Data from the previous 72 hours. | See also: Recent months for locations in Queensland
Date/Time
EST
Temp
°C
App
Temp
°C
Dew
Point
°C
Rel
Hum
%
Delta-T
°C
Wind Press
QNH
hPa
Press
MSL
hPa
Rain since
9am
mm
Dir  Spd
km/h
Gust
km/h
Spd
kts
Gust
kts
26/07:00am - - - - - W 9 11 5 6 - - -
26/06:30am - - - - - W 9 13 5 7 - - -
26/06:00am - - - - - W 11 13 6 7 - - -
26/05:30am - - - - - W 9 11 5 6 - - -
26/05:00am - - - - - WNW 9 11 5 6 - - -
26/04:30am - - - - - W 11 13 6 7 - - -
26/04:00am - - - - - WNW 13 17 7 9 - - -
26/03:30am - - - - - NW 13 17 7 9 - - -
26/03:00am - - - - - WNW 13 15 7 8 - - -
26/02:30am - - - - - WNW 13 15 7 8 - - -
26/02:00am - - - - - WNW 9 13 5 7 - - -
26/01:30am - - - - - W 15 19 8 10 - - -
26/01:00am - - - - - W 17 20 9 11 - - -
26/12:30am - - - - - W 20 22 11 12 - - -
26/12:00am - - - - - W 24 30 13 16 - - -
 
Date/Time
EST
Temp
°C
App
Temp
°C
Dew
Point
°C
Rel
Hum
%
Delta-T
°C
Wind Press
QNH
hPa
Press
MSL
hPa
Rain since
9am
mm
Dir  Spd
km/h
Gust
km/h
Spd
kts
Gust
kts
25/11:30pm - - - - - W 24 30 13 16 - - -
25/11:00pm - - - - - W 22 26 12 14 - - -
25/10:30pm - - - - - WNW 22 30 12 16 - - -
25/10:00pm - - - - - WSW 19 22 10 12 - - -
25/09:30pm - - - - - SSW 19 22 10 12 - - -
25/09:00pm - - - - - WNW 19 24 10 13 - - -
25/08:30pm - - - - - NW 28 33 15 18 - - -
25/08:00pm - - - - - NW 30 37 16 20 - - -
25/07:30pm - - - - - NW 28 35 15 19 - - -
25/07:00pm - - - - - WNW 20 24 11 13 - - -
25/06:30pm - - - - - W 17 20 9 11 - - -
25/06:00pm - - - - - W 24 28 13 15 - - -
25/05:30pm - - - - - NW 28 33 15 18 - - -
25/05:00pm - - - - - NNW 24 30 13 16 - - -
25/04:30pm - - - - - NNW 26 30 14 16 - - -
25/04:00pm - - - - - N 32 37 17 20 - - -
25/03:30pm - - - - - N 39 46 21 25 - - -
25/03:00pm - - - - - N 39 44 21 24 - - -
25/02:50pm - - - - - N 30 39 16 21 - - -
25/02:30pm - - - - - N 19 20 10 11 - - -
25/02:00pm - - - - - NNE 13 15 7 8 - - -
25/01:30pm - - - - - NNE 11 13 6 7 - - -
25/01:00pm - - - - - N 15 17 8 9 - - -
25/12:30pm - - - - - N 15 17 8 9 - - -
25/12:00pm - - - - - N 13 15 7 8 - - -
25/11:30am - - - - - NNE 13 17 7 9 - - -
25/11:00am - - - - - NNE 13 15 7 8 - - -
25/10:30am - - - - - NNE 13 17 7 9 - - -
25/10:00am - - - - - NNE 13 15 7 8 - - -
25/09:30am - - - - - NE 13 15 7 8 - - -
25/09:00am - - - - - NNE 13 17 7 9 - - -
25/08:30am - - - - - NE 19 20 10 11 - - -
25/08:00am - - - - - NE 15 19 8 10 - - -
25/07:30am - - - - - NE 11 15 6 8 - - -
25/07:00am - - - - - ENE 11 13 6 7 - - -
25/06:30am - - - - - E 13 17 7 9 - - -
25/06:00am - - - - - ENE 13 15 7 8 - - -
25/05:30am - - - - - ENE 17 20 9 11 - - -
25/05:00am - - - - - ENE 13 17 7 9 - - -
25/04:30am - - - - - ENE 20 22 11 12 - - -
25/04:00am - - - - - ENE 24 28 13 15 - - -
25/03:30am - - - - - E 22 26 12 14 - - -
25/03:00am - - - - - E 19 24 10 13 - - -
25/02:30am - - - - - E 20 24 11 13 - - -
25/02:00am - - - - - E 24 28 13 15 - - -
25/01:30am - - - - - E 22 28 12 15 - - -
25/01:00am - - - - - E 20 26 11 14 - - -
25/12:30am - - - - - E 20 24 11 13 - - -
25/12:00am - - - - - E 22 26 12 14 - - -
 
Date/Time
EST
Temp
°C
App
Temp
°C
Dew
Point
°C
Rel
Hum
%
Delta-T
°C
Wind Press
QNH
hPa
Press
MSL
hPa
Rain since
9am
mm
Dir  Spd
km/h
Gust
km/h
Spd
kts
Gust
kts
24/11:30pm - - - - - ESE 24 28 13 15 - - -
24/11:00pm - - - - - E 24 28 13 15 - - -
24/10:30pm - - - - - ESE 22 28 12 15 - - -
24/10:00pm - - - - - ESE 26 30 14 16 - - -
24/09:30pm - - - - - ESE 24 30 13 16 - - -
24/09:00pm - - - - - E 11 15 6 8 - - -
24/08:30pm - - - - - NW 9 13 5 7 - - -
24/08:00pm - - - - - WNW 7 11 4 6 - - -
24/07:30pm - - - - - NW 7 9 4 5 - - -
24/07:00pm - - - - - NW 11 15 6 8 - - -
24/06:30pm - - - - - N 11 13 6 7 - - -
24/06:00pm - - - - - NE 4 4 2 2 - - -
24/05:30pm - - - - - ENE 6 6 3 3 - - -
24/05:00pm - - - - - SSW 7 9 4 5 - - -
24/04:30pm - - - - - SSW 11 13 6 7 - - -
24/04:00pm - - - - - S 20 26 11 14 - - -
24/03:30pm - - - - - S 24 28 13 15 - - -
24/03:00pm - - - - - SSW 22 26 12 14 - - -
24/02:30pm - - - - - SW 28 32 15 17 - - -
24/02:00pm - - - - - SSW 32 37 17 20 - - -
24/01:30pm - - - - - SSW 26 32 14 17 - - -
24/01:00pm - - - - - SSW 28 35 15 19 - - -
24/12:30pm - - - - - S 19 26 10 14 - - -
24/12:00pm - - - - - SSW 28 33 15 18 - - -
24/11:30am - - - - - S 19 24 10 13 - - -
24/11:00am - - - - - SSW 17 22 9 12 - - -
24/10:30am - - - - - NW 6 11 3 6 - - -
24/10:00am - - - - - S 11 20 6 11 - - -
24/09:30am - - - - - WNW 7 9 4 5 - - -
24/09:00am - - - - - W 15 17 8 9 - - -
24/08:30am - - - - - WSW 13 13 7 7 - - -
24/08:00am - - - - - SW 11 13 6 7 - - -
24/07:30am - - - - - WSW 13 15 7 8 - - -
24/07:00am - - - - - SW 13 17 7 9 - - -
24/06:30am - - - - - SW 19 24 10 13 - - -
24/06:00am - - - - - SW 19 22 10 12 - - -
24/05:30am - - - - - W 19 24 10 13 - - -
24/05:00am - - - - - NW 17 20 9 11 - - -
24/04:30am - - - - - NW 15 17 8 9 - - -
24/04:00am - - - - - WNW 15 19 8 10 - - -
24/03:30am - - - - - WNW 20 24 11 13 - - -
24/03:00am - - - - - WNW 22 26 12 14 - - -
24/02:30am - - - - - NW 26 32 14 17 - - -
24/02:00am - - - - - NW 33 41 18 22 - - -
24/01:30am - - - - - NW 30 35 16 19 - - -
24/01:00am - - - - - NW 24 30 13 16 - - -
24/12:30am - - - - - NW 26 32 14 17 - - -
24/12:00am - - - - - NW 35 43 19 23 - - -
 
Date/Time
EST
Temp
°C
App
Temp
°C
Dew
Point
°C
Rel
Hum
%
Delta-T
°C
Wind Press
QNH
hPa
Press
MSL
hPa
Rain since
9am
mm
Dir  Spd
km/h
Gust
km/h
Spd
kts
Gust
kts
23/11:30pm - - - - - NW 33 39 18 21 - - -
23/11:00pm - - - - - NW 37 44 20 24 - - -
23/10:30pm - - - - - NW 33 39 18 21 - - -
23/10:00pm - - - - - NW 32 39 17 21 - - -
23/09:30pm - - - - - NW 32 37 17 20 - - -
23/09:00pm - - - - - NW 37 41 20 22 - - -
23/08:30pm - - - - - NW 33 41 18 22 - - -
23/08:00pm - - - - - NW 39 46 21 25 - - -
23/07:30pm - - - - - NW 39 46 21 25 - - -
23/07:00pm - - - - - NNW 37 46 20 25 - - -
23/06:30pm - - - - - NNW 39 48 21 26 - - -
23/06:00pm - - - - - NNW 41 48 22 26 - - -
23/05:30pm - - - - - NNW 37 44 20 24 - - -
23/05:00pm - - - - - NNW 35 43 19 23 - - -
23/04:30pm - - - - - NNW 33 39 18 21 - - -
23/04:00pm - - - - - NNW 33 39 18 21 - - -
23/03:30pm - - - - - NNW 33 39 18 21 - - -
23/03:00pm - - - - - NNW 32 39 17 21 - - -
23/02:30pm - - - - - NNW 33 39 18 21 - - -
23/02:00pm - - - - - NNW 32 39 17 21 - - -
23/01:30pm - - - - - NNW 32 37 17 20 - - -
23/01:00pm - - - - - NNW 28 33 15 18 - - -
23/12:30pm - - - - - NNW 26 30 14 16 - - -
23/12:00pm - - - - - NNW 24 30 13 16 - - -
23/11:30am - - - - - NNW 24 26 13 14 - - -
23/11:00am - - - - - NNW 24 28 13 15 - - -
23/10:30am - - - - - NNW 22 24 12 13 - - -
23/10:00am - - - - - NNW 19 22 10 12 - - -
23/09:30am - - - - - NNW 17 20 9 11 - - -
23/09:00am - - - - - NW 19 20 10 11 - - -
23/08:30am - - - - - NW 15 17 8 9 - - -
23/08:00am - - - - - WNW 19 20 10 11 - - -
23/07:30am - - - - - WNW 17 20 9 11 - - -

Latest Capital City Observations: Canberra | Sydney | Melbourne | Brisbane | Adelaide | Perth | Hobart | Darwin

Other formats

Comma delimited format used in spreadsheet applications
http://www.bom.gov.au/fwo/IDQ60901/IDQ60901.99496.axf

JavaScript Object Notation format (JSON) in row-major order
http://www.bom.gov.au/fwo/IDQ60901/IDQ60901.99496.json

Data quality

Most of these data are generated automatically and are frequently updated. Quality checks on data are not normally performed. It is possible for incorrect values to appear. Refer to information at About Latest Weather Observations and please check the disclaimer before using these data.